createdAt,value
2023-01-30T00:01:34.699Z,100612.16
2023-01-30T00:04:01.050Z,100595.59
2023-01-30T00:06:27.598Z,100581.50
2023-01-30T00:08:54.009Z,100563.41
2023-01-30T00:11:20.718Z,100572.72
2023-01-30T00:13:50.618Z,100543.59
2023-01-30T00:16:17.351Z,100535.53
2023-01-30T00:18:44.056Z,100521.19
2023-01-30T00:21:11.681Z,100512.22
2023-01-30T00:23:38.031Z,100536.75
2023-01-30T00:26:04.945Z,100529.69
2023-01-30T00:28:31.305Z,100519.63
2023-01-30T00:30:57.667Z,100514.00
2023-01-30T00:33:25.527Z,100502.53
2023-01-30T00:35:52.477Z,100496.06
2023-01-30T00:38:19.035Z,100476.19
2023-01-30T00:40:46.482Z,100454.22
2023-01-30T00:43:32.922Z,100459.56
2023-01-30T00:46:18.805Z,100439.41
2023-01-30T00:48:45.158Z,100419.22
2023-01-30T00:51:11.468Z,100411.22
2023-01-30T00:53:37.828Z,100390.44
2023-01-30T00:56:04.409Z,100386.66
2023-01-30T00:58:30.788Z,100380.53
2023-01-30T01:00:57.282Z,100373.44
2023-01-30T01:03:23.699Z,100378.84
2023-01-30T01:05:50.101Z,100374.25
2023-01-30T01:08:16.473Z,100372.16
2023-01-30T01:10:42.765Z,100370.59
2023-01-30T01:13:10.403Z,100368.38
2023-01-30T01:15:36.945Z,100371.75
2023-01-30T01:18:03.381Z,100376.50
2023-01-30T01:20:29.699Z,100366.25
2023-01-30T01:22:56.345Z,100365.69
2023-01-30T01:25:23.322Z,100353.72
2023-01-30T01:27:50.129Z,100361.66
2023-01-30T01:30:16.682Z,100362.09
2023-01-30T01:32:43.027Z,100350.84
2023-01-30T01:35:09.639Z,100329.03
2023-01-30T01:37:35.984Z,100325.69
2023-01-30T01:40:20.836Z,100304.34
2023-01-30T01:42:47.489Z,100302.75
2023-01-30T01:45:17.536Z,100297.53
2023-01-30T01:47:49.670Z,100300.09
2023-01-30T01:50:39.780Z,100281.41
2023-01-30T01:53:06.950Z,100263.25
2023-01-30T01:55:34.019Z,100254.34
2023-01-30T01:58:03.483Z,100249.41
2023-01-30T02:00:30.640Z,100242.56
2023-01-30T02:03:05.608Z,100248.97
2023-01-30T02:05:37.143Z,100245.25
2023-01-30T02:08:07.024Z,100238.25
2023-01-30T02:10:42.599Z,100228.06
2023-01-30T02:13:09.010Z,100229.66
2023-01-30T02:15:35.359Z,100230.91
2023-01-30T02:18:02.037Z,100212.44
2023-01-30T02:20:40.267Z,100209.59
2023-01-30T02:23:06.580Z,100218.06
2023-01-30T02:25:35.646Z,100214.03
2023-01-30T02:28:20.876Z,100198.28
2023-01-30T02:31:05.906Z,100198.00
2023-01-30T02:33:41.166Z,100194.81
2023-01-30T02:36:13.680Z,100195.91
2023-01-30T02:39:00.226Z,100196.84
2023-01-30T02:41:45.281Z,100193.19
2023-01-30T02:44:16.109Z,100190.19
2023-01-30T02:46:56.841Z,100179.81
2023-01-30T02:49:43.457Z,100178.53
2023-01-30T02:52:11.417Z,100167.06
2023-01-30T02:54:37.791Z,100169.00
2023-01-30T02:57:04.185Z,100160.69
2023-01-30T02:59:33.930Z,100155.59
2023-01-30T03:02:13.293Z,100149.22
2023-01-30T03:04:39.759Z,100139.19
2023-01-30T03:07:13.611Z,100124.81
2023-01-30T03:09:39.858Z,100115.13
2023-01-30T03:12:09.250Z,100114.31
2023-01-30T03:14:45.500Z,100096.78
2023-01-30T03:17:13.269Z,100103.31
2023-01-30T03:19:39.687Z,100088.50
2023-01-30T03:22:06.328Z,100088.84
2023-01-30T03:24:32.609Z,100081.97
2023-01-30T03:27:02.333Z,100072.56
2023-01-30T03:29:28.711Z,100074.47
2023-01-30T03:31:55.025Z,100062.19
2023-01-30T03:34:21.329Z,100067.91
2023-01-30T03:36:47.930Z,100069.06
2023-01-30T03:39:14.279Z,100053.59
2023-01-30T03:41:40.567Z,100058.81
2023-01-30T03:44:06.892Z,100055.97
2023-01-30T03:46:33.210Z,100047.88
2023-01-30T03:48:59.515Z,100059.31
2023-01-30T03:51:25.808Z,100047.69
2023-01-30T03:53:52.083Z,100048.00
2023-01-30T03:56:18.468Z,100041.47
2023-01-30T03:58:44.819Z,100028.41
2023-01-30T04:01:11.234Z,100028.75
2023-01-30T04:03:37.531Z,100021.38
2023-01-30T04:06:03.910Z,100026.78
2023-01-30T04:08:30.180Z,100019.31
2023-01-30T04:10:56.484Z,100012.78
2023-01-30T04:13:22.907Z,100010.19
2023-01-30T04:15:49.194Z,99999.06
2023-01-30T04:18:15.502Z,99989.03
2023-01-30T04:20:41.854Z,99975.16
2023-01-30T04:23:08.134Z,99983.94
2023-01-30T04:25:34.402Z,99976.22
2023-01-30T04:28:00.763Z,99964.53
2023-01-30T04:30:27.059Z,99970.38
2023-01-30T04:32:53.404Z,99953.63
2023-01-30T04:35:20.029Z,99959.88
2023-01-30T04:37:46.451Z,99958.72
2023-01-30T04:40:12.935Z,99946.88
2023-01-30T04:42:39.309Z,99944.09
2023-01-30T04:45:05.940Z,99945.31
2023-01-30T04:47:32.276Z,99933.84
2023-01-30T04:49:58.800Z,99929.56
2023-01-30T04:52:25.148Z,99926.66
2023-01-30T04:54:51.440Z,99926.94
2023-01-30T04:57:17.741Z,99917.53
2023-01-30T04:59:44.013Z,99926.00
2023-01-30T05:02:10.384Z,99917.31
2023-01-30T05:04:36.797Z,99923.69
2023-01-30T05:07:03.123Z,99925.41
2023-01-30T05:09:29.482Z,99919.19
2023-01-30T05:11:55.817Z,99921.03
2023-01-30T05:14:22.102Z,99922.16
2023-01-30T05:16:48.428Z,99899.34
2023-01-30T05:19:14.818Z,99901.50
2023-01-30T05:21:41.114Z,99873.84
2023-01-30T05:24:07.611Z,99875.16
2023-01-30T05:26:33.960Z,99863.56
2023-01-30T05:29:00.549Z,99862.72
2023-01-30T05:31:26.916Z,99870.06
2023-01-30T05:33:53.393Z,99878.88
2023-01-30T05:36:21.192Z,99897.66
2023-01-30T05:38:47.523Z,99883.97
2023-01-30T05:41:14.777Z,99878.09
2023-01-30T05:43:41.531Z,99881.38
2023-01-30T05:46:09.770Z,99875.50
2023-01-30T05:48:36.092Z,99871.47
2023-01-30T05:51:02.397Z,99865.78
2023-01-30T05:53:30.842Z,99860.75
2023-01-30T05:55:57.146Z,99868.91
2023-01-30T05:58:23.521Z,99861.00
2023-01-30T06:00:49.973Z,99855.91
2023-01-30T06:03:16.348Z,99852.81
2023-01-30T06:05:42.947Z,99850.56
2023-01-30T06:08:09.274Z,99851.22
2023-01-30T06:10:35.872Z,99838.91
2023-01-30T06:13:02.499Z,99841.81
2023-01-30T06:15:28.868Z,99839.22
2023-01-30T06:17:55.178Z,99835.97
2023-01-30T06:20:21.660Z,99839.03
2023-01-30T06:22:48.423Z,99843.13
2023-01-30T06:25:15.224Z,99827.38
2023-01-30T06:27:43.184Z,99826.47
2023-01-30T06:30:09.897Z,99839.50
2023-01-30T06:32:36.223Z,99832.72
2023-01-30T06:35:02.550Z,99827.91
2023-01-30T06:37:28.857Z,99826.16
2023-01-30T06:39:55.158Z,99836.44
2023-01-30T06:42:21.434Z,99831.81
2023-01-30T06:44:47.733Z,99843.25
2023-01-30T06:47:14.054Z,99840.66
2023-01-30T06:49:40.328Z,99841.13
2023-01-30T06:52:06.647Z,99841.69
2023-01-30T06:54:32.973Z,99836.75
2023-01-30T06:56:59.263Z,99842.03
2023-01-30T06:59:25.583Z,99828.00
2023-01-30T07:01:52.489Z,99818.97
2023-01-30T07:04:18.898Z,99836.47
2023-01-30T07:06:46.764Z,99841.25
2023-01-30T07:09:13.108Z,99837.13
2023-01-30T07:11:39.537Z,99830.81
2023-01-30T07:14:07.064Z,99843.16
2023-01-30T07:16:33.725Z,99830.06
2023-01-30T07:19:00.013Z,99828.81
2023-01-30T07:21:27.283Z,99838.09
2023-01-30T07:23:53.718Z,99839.00
2023-01-30T07:26:20.074Z,99837.38
2023-01-30T07:28:46.450Z,99841.63
2023-01-30T07:31:12.861Z,99838.78
2023-01-30T07:33:39.244Z,99839.56
2023-01-30T07:36:05.634Z,99836.97
2023-01-30T07:38:32.048Z,99838.88
2023-01-30T07:40:58.760Z,99835.28
2023-01-30T07:43:25.110Z,99838.09
2023-01-30T07:45:51.437Z,99839.00
2023-01-30T07:48:18.892Z,99839.94
2023-01-30T07:50:45.702Z,99822.50
2023-01-30T07:53:13.166Z,99809.00
2023-01-30T07:55:39.550Z,99814.09
2023-01-30T07:58:05.847Z,99808.88
2023-01-30T08:00:32.550Z,99821.03
2023-01-30T08:02:59.150Z,99820.81
2023-01-30T08:05:25.676Z,99829.16
2023-01-30T08:07:52.925Z,99834.13
2023-01-30T08:10:19.862Z,99835.88
2023-01-30T08:12:46.312Z,99828.50
2023-01-30T08:15:12.655Z,99833.91
2023-01-30T08:17:38.968Z,99831.22
2023-01-30T08:20:05.596Z,99834.84
2023-01-30T08:22:31.943Z,99843.00
2023-01-30T08:24:58.261Z,99838.16
2023-01-30T08:27:24.534Z,99837.94
2023-01-30T08:29:50.872Z,99838.69
2023-01-30T08:32:17.213Z,99844.13
2023-01-30T08:34:43.499Z,99847.75
2023-01-30T08:37:09.856Z,99841.09
2023-01-30T08:39:37.267Z,99846.97
2023-01-30T08:42:03.766Z,99843.91
2023-01-30T08:44:30.131Z,99851.50
2023-01-30T08:46:56.404Z,99855.91
2023-01-30T08:49:22.668Z,99854.34
2023-01-30T08:51:49.046Z,99856.94
2023-01-30T08:54:15.319Z,99859.09
2023-01-30T08:56:41.845Z,99856.50
2023-01-30T08:59:08.181Z,99848.09
2023-01-30T09:01:34.718Z,99860.34
2023-01-30T09:04:01.093Z,99856.25
2023-01-30T09:06:27.418Z,99854.34
2023-01-30T09:08:53.747Z,99864.22
2023-01-30T09:11:20.154Z,99838.34
2023-01-30T09:13:48.694Z,99854.44
2023-01-30T09:16:15.953Z,99870.97
2023-01-30T09:18:43.332Z,99857.16
2023-01-30T09:21:10.369Z,99867.94
2023-01-30T09:23:36.941Z,99854.78
2023-01-30T09:26:04.528Z,99861.34
2023-01-30T09:28:30.846Z,99858.88
2023-01-30T09:30:58.112Z,99864.63
2023-01-30T09:33:24.593Z,99868.53
2023-01-30T09:35:51.281Z,99860.69
2023-01-30T09:38:18.021Z,99871.66
2023-01-30T09:41:07.759Z,99878.56
2023-01-30T09:43:48.559Z,99874.84
2023-01-30T09:46:29.927Z,99857.28
2023-01-30T09:49:15.059Z,99871.66
2023-01-30T09:52:01.763Z,99862.16
2023-01-30T09:54:34.180Z,99866.78
2023-01-30T09:57:22.081Z,99871.69
2023-01-30T09:59:57.636Z,99849.81
2023-01-30T10:02:42.944Z,99858.75
2023-01-30T10:05:09.613Z,99861.91
2023-01-30T10:07:35.963Z,99859.75
2023-01-30T10:10:02.359Z,99845.09
2023-01-30T10:12:35.186Z,99846.78
2023-01-30T10:15:04.525Z,99844.41
2023-01-30T10:17:35.255Z,99846.13
2023-01-30T10:20:07.962Z,99841.44
2023-01-30T10:22:40.297Z,99841.09
2023-01-30T10:25:25.719Z,99832.59
2023-01-30T10:27:54.420Z,99844.41
2023-01-30T10:30:21.524Z,99837.34
2023-01-30T10:32:48.364Z,99832.28
2023-01-30T10:35:24.557Z,99825.41
2023-01-30T10:38:03.621Z,99830.25
2023-01-30T10:40:39.680Z,99816.75
2023-01-30T10:43:08.794Z,99816.88
2023-01-30T10:45:43.489Z,99817.97
2023-01-30T10:48:19.084Z,99815.59
2023-01-30T10:51:05.647Z,99815.72
2023-01-30T10:53:38.142Z,99819.34
2023-01-30T10:56:30.483Z,99819.03
2023-01-30T10:58:59.664Z,99813.09
2023-01-30T11:01:32.014Z,99822.97
2023-01-30T11:04:07.720Z,99820.47
2023-01-30T11:06:34.887Z,99824.44
2023-01-30T11:09:02.051Z,99818.69
2023-01-30T11:11:28.390Z,99826.59
2023-01-30T11:14:05.019Z,99823.19
2023-01-30T11:16:32.189Z,99828.97
2023-01-30T11:19:20.022Z,99823.75
2023-01-30T11:21:54.789Z,99816.56
2023-01-30T11:24:23.658Z,99823.50
2023-01-30T11:26:52.348Z,99808.19
2023-01-30T11:29:32.689Z,99796.22
2023-01-30T11:32:06.991Z,99791.69
2023-01-30T11:34:33.385Z,99790.34
2023-01-30T11:37:19.923Z,99775.59
2023-01-30T11:39:52.910Z,99778.19
2023-01-30T11:42:20.594Z,99778.09
2023-01-30T11:44:46.932Z,99785.56
2023-01-30T11:47:18.587Z,99776.97
2023-01-30T11:49:51.712Z,99788.38
2023-01-30T11:52:26.052Z,99763.38
2023-01-30T11:54:53.941Z,99764.81
2023-01-30T11:57:20.701Z,99763.78
2023-01-30T11:59:49.475Z,99752.22
2023-01-30T12:02:35.753Z,99742.63
2023-01-30T12:05:04.626Z,99727.34
2023-01-30T12:07:33.124Z,99726.56
2023-01-30T12:09:59.703Z,99726.34
2023-01-30T12:12:42.898Z,99743.06
2023-01-30T12:15:27.325Z,99740.66
2023-01-30T12:17:56.719Z,99726.00
2023-01-30T12:20:32.726Z,99721.47
2023-01-30T12:23:08.200Z,99709.78
2023-01-30T12:25:53.345Z,99711.34
2023-01-30T12:28:38.368Z,99706.09
2023-01-30T12:31:07.550Z,99701.84
2023-01-30T12:33:35.483Z,99713.00
2023-01-30T12:36:16.849Z,99707.31
2023-01-30T12:38:52.256Z,99709.44
2023-01-30T12:41:18.544Z,99709.63
2023-01-30T12:43:59.897Z,99704.09
2023-01-30T12:46:44.595Z,99689.25
2023-01-30T12:49:13.882Z,99681.81
2023-01-30T12:51:43.381Z,99681.03
2023-01-30T12:54:12.755Z,99679.09
2023-01-30T12:56:39.079Z,99667.63
2023-01-30T12:59:19.320Z,99673.00
2023-01-30T13:01:52.245Z,99671.38
2023-01-30T13:04:24.800Z,99673.56
2023-01-30T13:07:14.447Z,99666.81
2023-01-30T13:09:49.930Z,99691.06
2023-01-30T13:12:21.931Z,99687.31
2023-01-30T13:14:51.138Z,99700.56
2023-01-30T13:17:17.396Z,99716.38
2023-01-30T13:19:50.585Z,99728.97
2023-01-30T13:22:19.638Z,99689.91
2023-01-30T13:24:45.924Z,99688.22
2023-01-30T13:27:15.387Z,99702.66
2023-01-30T13:29:41.987Z,99710.28
2023-01-30T13:32:27.589Z,99725.97
2023-01-30T13:34:56.796Z,99727.16
2023-01-30T13:37:23.119Z,99712.72
2023-01-30T13:40:02.493Z,99732.56
2023-01-30T13:42:49.733Z,99748.06
2023-01-30T13:45:18.515Z,99753.50
2023-01-30T13:47:44.894Z,99748.00
2023-01-30T13:50:20.554Z,99734.59
2023-01-30T13:53:02.395Z,99748.09
2023-01-30T13:55:28.745Z,99765.66
2023-01-30T13:58:01.097Z,99768.72
2023-01-30T14:00:27.572Z,99770.66
2023-01-30T14:03:03.167Z,99769.84
2023-01-30T14:05:48.724Z,99774.28
2023-01-30T14:08:19.968Z,99792.81
2023-01-30T14:10:46.991Z,99799.28
2023-01-30T14:13:14.892Z,99809.59
2023-01-30T14:15:53.058Z,99814.38
2023-01-30T14:18:19.673Z,99838.59
2023-01-30T14:20:46.971Z,99839.16
2023-01-30T14:23:16.310Z,99829.31
2023-01-30T14:25:44.284Z,99833.06
2023-01-30T14:28:10.534Z,99829.19
2023-01-30T14:30:55.646Z,99834.75
2023-01-30T14:33:21.948Z,99837.72
2023-01-30T14:35:49.381Z,99834.16
2023-01-30T14:38:17.299Z,99855.81
2023-01-30T14:40:46.960Z,99833.63
2023-01-30T14:43:14.712Z,99848.66
2023-01-30T14:45:51.506Z,99851.97
2023-01-30T14:48:23.996Z,99857.63
2023-01-30T14:50:50.469Z,99861.16
2023-01-30T14:53:24.474Z,99861.59
2023-01-30T14:55:59.114Z,99847.19
2023-01-30T14:58:25.507Z,99855.00
2023-01-30T15:00:57.184Z,99865.22
2023-01-30T15:03:23.658Z,99866.25
2023-01-30T15:05:50.187Z,99873.59
2023-01-30T15:08:19.251Z,99866.47
2023-01-30T15:11:03.451Z,99868.03
2023-01-30T15:13:32.767Z,99868.06
2023-01-30T15:16:18.063Z,99868.94
2023-01-30T15:19:03.457Z,99881.28
2023-01-30T15:21:37.255Z,99886.31
2023-01-30T15:24:03.546Z,99892.28
2023-01-30T15:26:42.409Z,99878.69
2023-01-30T15:29:27.644Z,99866.78
2023-01-30T15:31:57.003Z,99878.94
2023-01-30T15:34:23.825Z,99898.63
2023-01-30T15:36:50.348Z,99893.53
2023-01-30T15:39:20.883Z,99900.66
2023-01-30T15:41:47.796Z,99904.28
2023-01-30T15:44:14.337Z,99888.53
2023-01-30T15:46:54.207Z,99899.53
2023-01-30T15:49:20.483Z,99901.13
2023-01-30T15:51:46.997Z,99908.59
2023-01-30T15:54:18.143Z,99903.50
2023-01-30T15:56:49.518Z,99913.56
2023-01-30T15:59:28.721Z,99917.56
2023-01-30T16:01:59.471Z,99919.28
2023-01-30T16:04:27.104Z,99935.66
2023-01-30T16:06:53.413Z,99935.22
2023-01-30T16:09:23.985Z,99945.91
2023-01-30T16:11:50.432Z,99935.91
2023-01-30T16:14:21.063Z,99927.16
2023-01-30T16:16:50.248Z,99945.28
2023-01-30T16:19:20.311Z,99951.59
2023-01-30T16:21:47.400Z,99955.94
2023-01-30T16:24:20.363Z,99974.06
2023-01-30T16:26:48.428Z,99967.50
2023-01-30T16:29:19.533Z,99963.66
2023-01-30T16:31:47.286Z,99989.97
2023-01-30T16:34:33.464Z,99993.44
2023-01-30T16:37:08.350Z,99987.19
2023-01-30T16:39:35.752Z,100006.03
2023-01-30T16:42:06.062Z,100011.72
2023-01-30T16:44:32.508Z,100013.03
2023-01-30T16:47:06.290Z,100022.94
2023-01-30T16:49:35.589Z,100038.63
2023-01-30T16:52:04.964Z,100040.47
2023-01-30T16:54:32.362Z,100040.06
2023-01-30T16:57:01.164Z,100055.91
2023-01-30T16:59:32.359Z,100055.22
2023-01-30T17:01:59.917Z,100061.47
2023-01-30T17:04:30.495Z,100067.00
2023-01-30T17:06:59.192Z,100070.41
2023-01-30T17:09:34.383Z,100083.97
2023-01-30T17:12:01.051Z,100083.56
2023-01-30T17:14:31.301Z,100094.66
2023-01-30T17:17:09.950Z,100103.38
2023-01-30T17:19:36.317Z,100103.50
2023-01-30T17:22:04.363Z,100107.56
2023-01-30T17:24:31.151Z,100112.47
2023-01-30T17:27:02.550Z,100117.78
2023-01-30T17:29:41.973Z,100121.63
2023-01-30T17:32:13.182Z,100124.38
2023-01-30T17:34:41.008Z,100138.25
2023-01-30T17:37:13.870Z,100144.78
2023-01-30T17:39:40.155Z,100133.97
2023-01-30T17:42:20.932Z,100151.25
2023-01-30T17:44:47.322Z,100148.03
2023-01-30T17:47:13.666Z,100144.97
2023-01-30T17:49:40.157Z,100143.25
2023-01-30T17:52:06.995Z,100151.63
2023-01-30T17:54:33.323Z,100165.06
2023-01-30T17:57:01.093Z,100149.88
2023-01-30T17:59:27.515Z,100177.00
2023-01-30T18:01:54.148Z,100186.53
2023-01-30T18:04:20.584Z,100202.72
2023-01-30T18:06:52.603Z,100211.56
2023-01-30T18:09:20.129Z,100209.19
2023-01-30T18:11:46.835Z,100217.50
2023-01-30T18:14:13.513Z,100219.66
2023-01-30T18:16:40.236Z,100229.72
2023-01-30T18:19:08.535Z,100242.59
2023-01-30T18:21:35.883Z,100246.44
2023-01-30T18:24:02.375Z,100251.63
2023-01-30T18:26:29.777Z,100259.47
2023-01-30T18:28:56.555Z,100272.41
2023-01-30T18:31:25.141Z,100265.06
2023-01-30T18:33:52.230Z,100269.94
2023-01-30T18:36:19.260Z,100273.72
2023-01-30T18:38:46.078Z,100293.81
2023-01-30T18:41:19.962Z,100282.81
2023-01-30T18:43:49.558Z,100298.41
2023-01-30T18:46:17.318Z,100302.00
2023-01-30T18:48:44.778Z,100304.03
2023-01-30T18:51:12.871Z,100311.06
2023-01-30T18:53:39.254Z,100314.13
2023-01-30T18:56:09.214Z,100330.47
2023-01-30T18:58:35.631Z,100338.16
2023-01-30T19:01:08.874Z,100347.66
2023-01-30T19:03:35.295Z,100342.41
2023-01-30T19:06:02.044Z,100364.47
2023-01-30T19:08:28.398Z,100373.59
2023-01-30T19:10:54.800Z,100364.44
2023-01-30T19:13:33.136Z,100372.56
2023-01-30T19:16:03.686Z,100386.53
2023-01-30T19:18:31.023Z,100390.47
2023-01-30T19:21:00.863Z,100408.22
2023-01-30T19:23:30.962Z,100413.19
2023-01-30T19:25:59.341Z,100414.06
2023-01-30T19:28:25.846Z,100433.22
2023-01-30T19:30:52.582Z,100424.97
2023-01-30T19:33:20.805Z,100436.88
2023-01-30T19:35:47.715Z,100427.91
2023-01-30T19:38:14.198Z,100429.88
2023-01-30T19:40:44.326Z,100426.03
2023-01-30T19:43:13.864Z,100442.69
2023-01-30T19:45:41.526Z,100449.03
2023-01-30T19:48:09.402Z,100456.91
2023-01-30T19:50:36.457Z,100458.63
2023-01-30T19:53:03.312Z,100462.16
2023-01-30T19:55:32.503Z,100459.41
2023-01-30T19:58:01.405Z,100444.88
2023-01-30T20:00:27.998Z,100470.09
2023-01-30T20:02:54.398Z,100480.88
2023-01-30T20:05:21.149Z,100484.13
2023-01-30T20:07:48.452Z,100466.53
2023-01-30T20:10:14.891Z,100475.84
2023-01-30T20:12:41.285Z,100489.50
2023-01-30T20:15:09.205Z,100494.97
2023-01-30T20:17:35.719Z,100505.31
2023-01-30T20:20:02.361Z,100510.47
2023-01-30T20:22:28.751Z,100510.78
2023-01-30T20:24:55.067Z,100517.47
2023-01-30T20:27:21.619Z,100518.63
2023-01-30T20:29:48.094Z,100529.50
2023-01-30T20:32:14.562Z,100523.59
2023-01-30T20:34:40.993Z,100528.78
2023-01-30T20:37:07.321Z,100539.81
2023-01-30T20:39:33.701Z,100530.56
2023-01-30T20:41:59.999Z,100522.41
2023-01-30T20:44:26.994Z,100514.25
2023-01-30T20:46:53.413Z,100518.56
2023-01-30T20:49:20.761Z,100525.78
2023-01-30T20:51:50.007Z,100520.34
2023-01-30T20:54:17.137Z,100522.91
2023-01-30T20:56:44.993Z,100517.66
2023-01-30T20:59:12.729Z,100516.72
2023-01-30T21:01:39.573Z,100525.34
2023-01-30T21:04:07.469Z,100520.53
2023-01-30T21:06:42.820Z,100521.03
2023-01-30T21:09:15.898Z,100525.03
2023-01-30T21:11:42.804Z,100540.56
2023-01-30T21:14:09.182Z,100539.44
2023-01-30T21:16:36.070Z,100538.47
2023-01-30T21:19:05.965Z,100535.59
2023-01-30T21:21:37.663Z,100533.19
2023-01-30T21:24:07.070Z,100547.09
2023-01-30T21:26:34.447Z,100558.16
2023-01-30T21:29:01.517Z,100553.34
2023-01-30T21:31:28.655Z,100557.31
2023-01-30T21:33:58.872Z,100563.25
2023-01-30T21:36:26.016Z,100576.34
2023-01-30T21:39:10.791Z,100578.75
2023-01-30T21:42:04.794Z,100592.34
2023-01-30T21:44:38.083Z,100600.00
2023-01-30T21:47:05.619Z,100593.47
2023-01-30T21:49:32.244Z,100607.53
2023-01-30T21:51:58.757Z,100620.31
2023-01-30T21:54:26.664Z,100637.91
2023-01-30T21:56:53.005Z,100656.94
2023-01-30T21:59:19.412Z,100652.63
2023-01-30T22:01:45.759Z,100651.16
2023-01-30T22:04:16.202Z,100652.78
2023-01-30T22:06:42.596Z,100660.94
2023-01-30T22:09:09.144Z,100651.66
2023-01-30T22:11:36.743Z,100658.38
2023-01-30T22:14:03.475Z,100666.97
2023-01-30T22:16:30.458Z,100676.59
2023-01-30T22:18:57.947Z,100678.63
2023-01-30T22:21:25.489Z,100702.94
2023-01-30T22:23:52.738Z,100696.53
2023-01-30T22:26:20.368Z,100703.28
2023-01-30T22:28:46.829Z,100700.06
2023-01-30T22:31:14.664Z,100701.78
2023-01-30T22:33:44.880Z,100710.09
2023-01-30T22:36:11.475Z,100703.88
2023-01-30T22:38:41.762Z,100710.91
2023-01-30T22:41:14.464Z,100716.00
2023-01-30T22:44:07.327Z,100718.06
2023-01-30T22:46:34.930Z,100721.59
2023-01-30T22:49:01.850Z,100731.78
2023-01-30T22:51:32.324Z,100736.38
2023-01-30T22:54:00.469Z,100734.66
2023-01-30T22:56:31.181Z,100732.03
2023-01-30T22:58:57.611Z,100750.09
2023-01-30T23:01:25.164Z,100745.28
2023-01-30T23:03:54.977Z,100746.88
2023-01-30T23:06:21.813Z,100754.28
2023-01-30T23:08:48.771Z,100751.88
2023-01-30T23:11:18.083Z,100756.16
2023-01-30T23:13:45.181Z,100757.88
2023-01-30T23:16:12.234Z,100745.91
2023-01-30T23:18:58.104Z,100760.66
2023-01-30T23:21:27.753Z,100762.78
2023-01-30T23:23:55.336Z,100767.84
2023-01-30T23:26:22.378Z,100780.47
2023-01-30T23:28:49.258Z,100766.63
2023-01-30T23:31:18.110Z,100765.84
2023-01-30T23:33:45.169Z,100760.84
2023-01-30T23:36:13.332Z,100775.16
2023-01-30T23:38:40.035Z,100770.25
2023-01-30T23:41:14.217Z,100772.69
2023-01-30T23:43:41.600Z,100776.19
2023-01-30T23:46:10.803Z,100774.44
2023-01-30T23:48:37.624Z,100772.16
2023-01-30T23:51:04.368Z,100782.38
2023-01-30T23:53:30.714Z,100781.75
2023-01-30T23:55:57.087Z,100771.22
2023-01-30T23:58:23.471Z,100784.56
